createdAt,value
2022-12-27T00:04:13.913Z,0
2022-12-27T00:09:13.926Z,0
2022-12-27T00:14:13.923Z,0
2022-12-27T00:19:13.933Z,0
2022-12-27T00:24:13.952Z,0
2022-12-27T00:29:13.928Z,0
2022-12-27T00:34:13.931Z,0
2022-12-27T00:39:13.921Z,0
2022-12-27T00:44:13.929Z,0
2022-12-27T00:49:13.945Z,0
2022-12-27T00:54:13.881Z,0
2022-12-27T00:59:13.916Z,0
2022-12-27T01:04:13.932Z,0
2022-12-27T01:09:13.943Z,0
2022-12-27T01:14:13.915Z,0
2022-12-27T01:19:13.870Z,0
2022-12-27T01:24:13.919Z,0
2022-12-27T01:29:13.939Z,0
2022-12-27T01:34:13.906Z,0
2022-12-27T01:39:13.887Z,0
2022-12-27T01:44:13.899Z,0
2022-12-27T01:49:13.899Z,0
2022-12-27T01:54:13.898Z,0
2022-12-27T01:59:13.871Z,0
2022-12-27T02:04:13.906Z,0
2022-12-27T02:09:13.951Z,0
2022-12-27T02:14:13.872Z,0
2022-12-27T02:19:13.881Z,0
2022-12-27T02:24:13.864Z,0
2022-12-27T02:29:13.907Z,0
2022-12-27T02:34:13.882Z,0
2022-12-27T02:39:13.882Z,0
2022-12-27T02:44:13.903Z,0
2022-12-27T02:49:13.997Z,0
2022-12-27T02:54:13.880Z,0
2022-12-27T02:59:13.870Z,0
2022-12-27T03:04:13.856Z,0
2022-12-27T03:09:13.888Z,0
2022-12-27T03:14:13.855Z,0
2022-12-27T03:19:13.881Z,0
2022-12-27T03:24:13.876Z,0
2022-12-27T03:29:13.855Z,0
2022-12-27T03:34:13.872Z,0
2022-12-27T03:39:13.839Z,0
2022-12-27T03:44:13.863Z,0
2022-12-27T03:49:13.892Z,0
2022-12-27T03:54:13.857Z,0
2022-12-27T03:59:13.849Z,0
2022-12-27T04:04:13.872Z,0
2022-12-27T04:09:13.851Z,0
2022-12-27T04:14:13.810Z,0
2022-12-27T04:19:13.832Z,0
2022-12-27T04:24:13.852Z,0
2022-12-27T04:29:13.843Z,0
2022-12-27T04:34:13.846Z,0
2022-12-27T04:39:13.821Z,0
2022-12-27T04:44:13.858Z,0
2022-12-27T04:49:13.853Z,0
2022-12-27T04:54:13.831Z,0
2022-12-27T04:59:13.837Z,0
2022-12-27T05:04:14.086Z,0
2022-12-27T05:09:17.328Z,0
2022-12-27T05:14:14.072Z,0
2022-12-27T05:19:14.047Z,0
2022-12-27T05:24:14.065Z,0
2022-12-27T05:29:14.130Z,0
2022-12-27T05:34:14.072Z,0
2022-12-27T05:39:14.044Z,0
2022-12-27T05:44:14.056Z,0
2022-12-27T05:49:14.093Z,0
2022-12-27T05:54:14.062Z,0
2022-12-27T05:59:14.050Z,0
2022-12-27T06:04:14.040Z,0
2022-12-27T06:09:14.081Z,0
2022-12-27T06:14:14.026Z,0
2022-12-27T06:19:14.023Z,0
2022-12-27T06:24:14.038Z,0
2022-12-27T06:29:14.077Z,0
2022-12-27T06:34:14.016Z,0
2022-12-27T06:39:14.017Z,0
2022-12-27T06:44:14.046Z,0
2022-12-27T06:49:14.080Z,0
2022-12-27T06:54:14.032Z,0
2022-12-27T06:59:13.991Z,0
2022-12-27T07:04:14.009Z,0
2022-12-27T07:09:14.013Z,0
2022-12-27T07:14:14.002Z,0
2022-12-27T07:19:14.020Z,0
2022-12-27T07:24:13.974Z,0
2022-12-27T07:29:14.023Z,0
2022-12-27T07:34:13.983Z,0
2022-12-27T07:39:13.972Z,0
2022-12-27T07:44:13.945Z,2
2022-12-27T07:49:17.776Z,2
2022-12-27T07:54:13.977Z,3
2022-12-27T07:59:13.984Z,6
2022-12-27T08:04:13.958Z,9
2022-12-27T08:09:13.975Z,14
2022-12-27T08:14:13.947Z,16
2022-12-27T08:19:13.945Z,13
2022-12-27T08:24:13.969Z,15
2022-12-27T08:29:13.979Z,15
2022-12-27T08:34:13.954Z,12
2022-12-27T08:39:13.959Z,26
2022-12-27T08:44:13.972Z,42
2022-12-27T08:49:13.973Z,36
2022-12-27T08:54:13.952Z,62
2022-12-27T08:59:13.974Z,90
2022-12-27T09:04:13.955Z,109
2022-12-27T09:09:13.952Z,51
2022-12-27T09:14:13.949Z,77
2022-12-27T09:19:13.875Z,50
2022-12-27T09:24:13.943Z,42
2022-12-27T09:29:13.944Z,33
2022-12-27T09:34:13.915Z,36
2022-12-27T09:39:14.021Z,37
2022-12-27T09:44:13.953Z,58
2022-12-27T09:49:13.970Z,61
2022-12-27T09:54:13.932Z,93
2022-12-27T09:59:13.958Z,89
2022-12-27T10:04:13.974Z,116
2022-12-27T10:09:14.295Z,72
2022-12-27T10:14:14.152Z,60
2022-12-27T10:19:14.160Z,55
2022-12-27T10:24:14.194Z,48
2022-12-27T10:29:14.217Z,52
2022-12-27T10:34:14.184Z,66
2022-12-27T10:39:14.161Z,90
2022-12-27T10:44:14.178Z,67
2022-12-27T10:49:21.927Z,49
2022-12-27T10:54:14.169Z,109
2022-12-27T10:59:14.157Z,109
2022-12-27T11:04:19.646Z,85
2022-12-27T11:09:15.446Z,66
2022-12-27T11:14:15.381Z,92
2022-12-27T11:19:15.420Z,202
2022-12-27T11:24:15.392Z,233
2022-12-27T11:29:15.427Z,181
2022-12-27T11:34:15.379Z,129
2022-12-27T11:39:15.418Z,63
2022-12-27T11:44:15.382Z,70
2022-12-27T11:49:15.415Z,118
2022-12-27T11:54:15.373Z,133
2022-12-27T11:59:15.384Z,137
2022-12-27T12:04:15.356Z,116
2022-12-27T12:09:15.444Z,106
2022-12-27T12:14:15.388Z,174
2022-12-27T12:19:15.383Z,100
2022-12-27T12:24:15.356Z,117
2022-12-27T12:29:15.410Z,92
2022-12-27T12:34:15.621Z,100
2022-12-27T12:39:15.627Z,129
2022-12-27T12:44:15.607Z,131
2022-12-27T12:49:15.641Z,147
2022-12-27T12:54:15.583Z,153
2022-12-27T12:59:15.588Z,159
2022-12-27T13:04:15.625Z,114
2022-12-27T13:09:15.634Z,86
2022-12-27T13:14:15.591Z,68
2022-12-27T13:19:15.592Z,96
2022-12-27T13:24:15.604Z,71
2022-12-27T13:29:15.597Z,64
2022-12-27T13:34:15.573Z,73
2022-12-27T13:39:15.596Z,72
2022-12-27T13:44:15.612Z,72
2022-12-27T13:49:15.636Z,98
2022-12-27T13:54:15.587Z,93
2022-12-27T13:59:15.581Z,70
2022-12-27T14:04:15.596Z,64
2022-12-27T14:09:15.596Z,57
2022-12-27T14:14:15.570Z,55
2022-12-27T14:19:15.583Z,33
2022-12-27T14:24:15.570Z,26
2022-12-27T14:29:15.617Z,34
2022-12-27T14:34:15.579Z,26
2022-12-27T14:39:15.604Z,21
2022-12-27T14:44:15.593Z,21
2022-12-27T14:49:15.579Z,18
2022-12-27T14:54:15.594Z,12
2022-12-27T14:59:15.559Z,18
2022-12-27T15:04:15.594Z,12
2022-12-27T15:09:16.202Z,6
2022-12-27T15:14:16.166Z,3
2022-12-27T15:19:16.153Z,0
2022-12-27T15:24:16.173Z,0
2022-12-27T15:29:16.190Z,0
2022-12-27T15:34:16.159Z,0
2022-12-27T15:39:16.151Z,0
2022-12-27T15:44:16.135Z,0
2022-12-27T15:49:16.191Z,0
2022-12-27T15:54:16.163Z,0
2022-12-27T15:59:16.145Z,0
2022-12-27T16:04:16.118Z,0
2022-12-27T16:09:16.176Z,0
2022-12-27T16:14:16.143Z,0
2022-12-27T16:19:16.133Z,0
2022-12-27T16:24:16.115Z,0
2022-12-27T16:29:16.500Z,0
2022-12-27T16:34:16.131Z,0
2022-12-27T16:39:16.148Z,0
2022-12-27T16:44:16.131Z,0
2022-12-27T16:49:16.129Z,0
2022-12-27T16:54:16.100Z,0
2022-12-27T16:59:16.128Z,0
2022-12-27T17:04:16.374Z,0
2022-12-27T17:09:16.400Z,0
2022-12-27T17:14:16.353Z,0
2022-12-27T17:19:16.433Z,0
2022-12-27T17:24:16.373Z,0
2022-12-27T17:29:16.399Z,0
2022-12-27T17:34:16.357Z,0
2022-12-27T17:39:16.364Z,0
2022-12-27T17:44:16.359Z,0
2022-12-27T17:49:16.411Z,0
2022-12-27T17:54:16.334Z,0
2022-12-27T17:59:16.370Z,0
2022-12-27T18:04:16.330Z,0
2022-12-27T18:09:16.608Z,0
2022-12-27T18:14:16.605Z,0
2022-12-27T18:19:16.609Z,0
2022-12-27T18:24:16.620Z,0
2022-12-27T18:29:16.630Z,0
2022-12-27T18:34:16.565Z,0
2022-12-27T18:39:16.834Z,0
2022-12-27T18:44:18.764Z,0
2022-12-27T18:49:16.857Z,0
2022-12-27T18:54:16.850Z,0
2022-12-27T18:59:16.862Z,0
2022-12-27T19:04:16.816Z,0
2022-12-27T19:09:16.882Z,0
2022-12-27T19:14:16.820Z,0
2022-12-27T19:19:16.896Z,0
2022-12-27T19:24:16.840Z,0
2022-12-27T19:29:16.850Z,0
2022-12-27T19:34:16.838Z,0
2022-12-27T19:39:16.810Z,0
2022-12-27T19:44:16.828Z,0
2022-12-27T19:49:42.402Z,0
2022-12-27T19:54:16.817Z,0
2022-12-27T19:59:16.886Z,0
2022-12-27T20:04:16.804Z,0
2022-12-27T20:09:16.869Z,0
2022-12-27T20:14:16.825Z,0
2022-12-27T20:19:16.818Z,0
2022-12-27T20:24:16.795Z,0
2022-12-27T20:29:16.831Z,0
2022-12-27T20:34:16.781Z,0
2022-12-27T20:39:16.837Z,0
2022-12-27T20:44:16.797Z,0
2022-12-27T20:49:16.858Z,0
2022-12-27T20:54:16.795Z,0
2022-12-27T20:59:16.791Z,0
2022-12-27T21:04:17.386Z,0
2022-12-27T21:09:17.424Z,0
2022-12-27T21:14:17.397Z,0
2022-12-27T21:19:17.380Z,0
2022-12-27T21:24:17.403Z,0
2022-12-27T21:29:17.423Z,0
2022-12-27T21:34:19.281Z,0
2022-12-27T21:39:19.238Z,0
2022-12-27T21:44:19.289Z,0
2022-12-27T21:49:19.236Z,0
2022-12-27T21:54:19.271Z,0
2022-12-27T21:59:19.263Z,0
2022-12-27T22:04:19.293Z,0
2022-12-27T22:09:19.726Z,0
2022-12-27T22:14:23.440Z,0
2022-12-27T22:19:19.239Z,0
2022-12-27T22:24:19.517Z,0
2022-12-27T22:29:19.218Z,0
2022-12-27T22:34:19.260Z,0
2022-12-27T22:39:19.247Z,0
2022-12-27T22:44:19.273Z,0
2022-12-27T22:49:19.479Z,0
2022-12-27T22:54:19.465Z,0
2022-12-27T22:59:19.483Z,0
2022-12-27T23:04:19.577Z,0
2022-12-27T23:09:19.467Z,0
2022-12-27T23:14:19.461Z,0
2022-12-27T23:19:19.485Z,0
2022-12-27T23:24:19.488Z,0
2022-12-27T23:29:19.440Z,0
2022-12-27T23:34:24.093Z,0
2022-12-27T23:39:19.437Z,0
2022-12-27T23:44:33.524Z,0
2022-12-27T23:49:19.468Z,0
2022-12-27T23:54:19.483Z,0
2022-12-27T23:59:19.462Z,0
